Airfield :
LOGIN :

Register | Disclaimer

   EN    FR    IT 

 










Legend :    VFR   Marginal VFR   IFR   Intensive IFR   Very Intensive IFR
Visi :
Ceiling :
>= 8 km
>= 3000ft
5 to 8 km
1000 to 3000 ft
1500m to 5 km
500 to 1000 ft
800 to 1500m
200 to 500 ft
< 800m
< 200 ft
Symbols :   Thunderstorms  Fog  Heavy snow  Heavy precipitations  Wind > 20 kt
SIGMETs :     Misc.  Thunderstorms  Icing  Turbulence  Mountain Waves  Volcanic Ashes






- Airport Elevation : 499 ft
- IATA code : TLS


LFBO - Toulouse / Blagnac

CURRENT METAR :
  • 262000Z AUTO 18003KT 8000 NSC 07/06 Q1022 BECMG 0600 FG VV///

EXPIRED METARs :
  • 261930Z AUTO 16003KT 130V200 CAVOK 07/06 Q1022 BECMG 0600 FG VV///
  • 261900Z AUTO VRB03KT CAVOK 08/06 Q1022 NOSIG
  • 261830Z AUTO 19003KT 170V230 CAVOK 08/07 Q1022 NOSIG
  • 261800Z AUTO VRB03KT CAVOK 08/06 Q1021 NOSIG

TAF TAF LFBO
Valid from the 26 at 18:00 until the 28 at 00:00 UTC


261700Z 2618/2724 16004KT CAVOK
BECMG 2621/2623 0600 FG VV///
PROB30
TEMPO 2622/2706 0300
BECMG 2706/2708 4000 BR BKN003
BECMG 2708/2710 CAVOK
BECMG 2714/2716 18010KT
PROB30
TEMPO 2716/2721 -RA BKN010
ATIS : +33 5 62 74 66 36



MET'MAP, your aeronautical weather chart ! - Copyright ORBIFLY December 2007 - Disclaimer

ORBIFLY MET'MAP TEAM :

Programming & Development : Alexandra Zaïnal
Concept & original design : Baudouin d'Aumeries
Assistance for programming : Marc-Olivier Méhu
Technical & hardware support : Manuel Goepfert

Contact : metmap@orbifly.com




SOURCES & CREDITS :

   NOAA